Time,TemperatureF,DewpointF,PressureIn,WindDirection,WindDirectionDegrees,WindSpeedMPH,WindSpeedGustMPH,Humidity,HourlyPrecipIn,Conditions,Clouds,dailyrainin,SolarRadiationWatts/m^2,SoftwareType,DateUTC
2013-03-06 00:00:00,21.3,18.0,30.04,ESE,111,2.0,3.0,87,0.00,CLR,,0.00,0.0,WeatherDisplay:10.37,2013-03-06 05:00:00,
2013-03-06 00:01:00,21.3,18.0,30.04,SE,128,3.5,3.5,87,0.00,CLR,,0.00,0.0,WeatherDisplay:10.37,2013-03-06 05:01:00,
2013-03-06 00:06:00,21.1,17.8,30.04,SE,125,3.5,3.5,87,0.00,CLR,,0.00,0.0,WeatherDisplay:10.37,2013-03-06 05:06:00,
2013-03-06 00:11:00,21.0,17.7,30.04,SE,125,2.3,2.3,87,0.00,CLR,,0.00,0.0,WeatherDisplay:10.37,2013-03-06 05:11:00,
2013-03-06 00:16:00,20.8,17.5,30.04,SE,125,2.3,2.3,87,0.00,CLR,,0.00,0.0,WeatherDisplay:10.37,2013-03-06 05:16:00,
2013-03-06 00:21:00,20.6,17.3,30.04,ESE,116,3.5,3.5,87,0.00,CLR,,0.00,0.0,WeatherDisplay:10.37,2013-03-06 05:21:00,
2013-03-06 00:26:00,20.8,17.8,30.04,ESE,116,3.5,3.5,88,0.00,CLR,,0.00,0.0,WeatherDisplay:10.37,2013-03-06 05:26:00,
2013-03-06 00:31:00,21.0,18.0,30.04,ESE,115,2.3,2.3,88,0.00,CLR,,0.00,0.0,WeatherDisplay:10.37,2013-03-06 05:31:00,
2013-03-06 00:36:00,21.0,18.0,30.04,ESE,115,0.0,0.0,88,0.00,CLR,,0.00,0.0,WeatherDisplay:10.37,2013-03-06 05:36:00,
2013-03-06 00:41:00,20.8,17.8,30.04,ESE,115,0.0,0.0,88,0.00,CLR,,0.00,0.0,WeatherDisplay:10.37,2013-03-06 05:41:00,
2013-03-06 00:46:00,20.6,17.6,30.04,ESE,115,0.0,0.0,88,0.00,CLR,,0.00,0.0,WeatherDisplay:10.37,2013-03-06 05:46:00,
2013-03-06 00:51:00,20.6,17.6,30.04,ESE,115,0.0,0.0,88,0.00,CLR,,0.00,0.0,WeatherDisplay:10.37,2013-03-06 05:51:00,
2013-03-06 00:56:00,20.6,17.6,30.04,ESE,115,0.0,0.0,88,0.00,CLR,,0.00,0.0,WeatherDisplay:10.37,2013-03-06 05:56:00,
2013-03-06 01:01:00,20.5,17.5,30.04,ESE,115,0.0,0.0,88,0.00,CLR,,0.00,0.0,WeatherDisplay:10.37,2013-03-06 06:01:00,
2013-03-06 01:06:00,20.2,17.2,30.04,ESE,115,0.0,0.0,88,0.00,CLR,,0.00,0.0,WeatherDisplay:10.37,2013-03-06 06:06:00,
2013-03-06 01:11:00,20.2,17.2,30.04,East,87,2.0,2.0,88,0.00,CLR,,0.00,0.0,WeatherDisplay:10.37,2013-03-06 06:11:00,
2013-03-06 01:16:00,20.3,17.3,30.04,East,87,3.5,3.5,88,0.00,CLR,,0.00,0.0,WeatherDisplay:10.37,2013-03-06 06:16:00,
2013-03-06 01:21:00,20.3,17.3,30.04,East,87,1.0,1.0,88,0.00,CLR,,0.00,0.0,WeatherDisplay:10.37,2013-03-06 06:21:00,
2013-03-06 01:26:00,20.3,17.3,30.05,East,87,0.0,0.0,88,0.00,CLR,,0.00,0.0,WeatherDisplay:10.37,2013-03-06 06:26:00,
2013-03-06 01:31:00,20.3,17.3,30.05,East,87,0.0,0.0,88,0.00,CLR,,0.00,0.0,WeatherDisplay:10.37,2013-03-06 06:31:00,
2013-03-06 01:36:00,20.2,17.2,30.05,East,87,2.3,2.3,88,0.00,CLR,,0.00,0.0,WeatherDisplay:10.37,2013-03-06 06:36:00,
2013-03-06 01:41:00,20.0,17.0,30.05,East,87,2.3,0.0,88,0.00,CLR,,0.00,0.0,WeatherDisplay:10.37,2013-03-06 06:41:00,
2013-03-06 01:46:00,20.0,16.8,30.05,East,87,0.0,0.0,87,0.00,CLR,,0.00,0.0,WeatherDisplay:10.37,2013-03-06 06:46:00,
2013-03-06 01:51:00,19.9,16.7,30.05,East,87,0.0,0.0,87,0.00,CLR,,0.00,0.0,WeatherDisplay:10.37,2013-03-06 06:51:00,
2013-03-06 01:56:00,19.7,16.7,30.04,East,87,1.0,1.0,88,0.00,CLR,,0.00,0.0,WeatherDisplay:10.37,2013-03-06 06:56:00,
2013-03-06 02:01:00,19.9,16.9,30.04,East,87,0.0,0.0,88,0.00,CLR,,0.00,0.0,WeatherDisplay:10.37,2013-03-06 07:01:00,
2013-03-06 02:06:00,19.9,16.9,30.04,East,87,1.0,1.0,88,0.00,CLR,,0.00,0.0,WeatherDisplay:10.37,2013-03-06 07:06:00,
2013-03-06 02:11:00,20.2,17.2,30.03,NE,54,2.3,2.3,88,0.00,CLR,,0.00,0.0,WeatherDisplay:10.37,2013-03-06 07:11:00,
2013-03-06 02:16:00,20.3,17.3,30.03,NE,52,0.0,0.0,88,0.00,CLR,,0.00,0.0,WeatherDisplay:10.37,2013-03-06 07:16:00,
2013-03-06 02:21:00,20.3,17.0,30.03,NE,52,0.0,0.0,87,0.00,CLR,,0.00,0.0,WeatherDisplay:10.37,2013-03-06 07:21:00,
2013-03-06 02:26:00,20.2,17.2,30.04,NE,52,0.0,0.0,88,0.00,FEW,,0.00,0.0,WeatherDisplay:10.37,2013-03-06 07:26:00,
2013-03-06 02:31:00,19.9,16.7,30.04,NE,52,0.0,0.0,87,0.00,FEW,,0.00,0.0,WeatherDisplay:10.37,2013-03-06 07:31:00,
2013-03-06 02:36:00,19.5,16.3,30.04,NE,52,0.0,0.0,87,0.00,FEW,,0.00,0.0,WeatherDisplay:10.37,2013-03-06 07:36:00,
2013-03-06 02:41:00,19.4,16.2,30.03,NE,52,0.0,0.0,87,0.00,FEW,,0.00,0.0,WeatherDisplay:10.37,2013-03-06 07:41:00,
2013-03-06 02:46:00,19.4,16.2,30.03,NE,52,0.0,0.0,87,0.00,FEW,,0.00,0.0,WeatherDisplay:10.37,2013-03-06 07:46:00,
2013-03-06 02:51:00,19.4,16.2,30.03,NE,52,0.0,0.0,87,0.00,FEW,,0.00,0.0,WeatherDisplay:10.37,2013-03-06 07:51:00,
2013-03-06 02:56:00,19.1,15.9,30.03,NE,52,0.0,0.0,87,0.00,FEW,,0.00,0.0,WeatherDisplay:10.37,2013-03-06 07:56:00,
2013-03-06 03:01:00,18.9,15.7,30.03,NE,52,2.3,2.3,87,0.00,FEW,,0.00,0.0,WeatherDisplay:10.37,2013-03-06 08:01:00,
2013-03-06 03:06:00,19.1,15.9,30.03,NE,52,0.0,0.0,87,0.00,FEW,,0.00,0.0,WeatherDisplay:10.37,2013-03-06 08:06:00,
2013-03-06 03:11:00,19.2,16.0,30.03,NE,52,1.2,0.0,87,0.00,FEW,,0.00,0.0,WeatherDisplay:10.37,2013-03-06 08:11:00,
2013-03-06 03:16:00,19.2,16.0,30.03,NE,52,0.0,0.0,87,0.00,FEW,,0.00,0.0,WeatherDisplay:10.37,2013-03-06 08:16:00,
2013-03-06 03:21:00,19.2,16.0,30.03,NE,52,0.0,0.0,87,0.00,FEW,,0.00,0.0,WeatherDisplay:10.37,2013-03-06 08:21:00,
2013-03-06 03:26:00,19.2,16.0,30.03,NE,52,0.0,0.0,87,0.00,FEW,,0.00,0.0,WeatherDisplay:10.37,2013-03-06 08:26:00,
2013-03-06 03:31:00,19.4,16.2,30.03,NE,52,1.2,1.2,87,0.00,FEW,,0.00,0.0,WeatherDisplay:10.37,2013-03-06 08:31:00,
2013-03-06 03:36:00,19.7,16.5,30.03,NE,52,1.2,0.0,87,0.00,FEW,,0.00,0.0,WeatherDisplay:10.37,2013-03-06 08:36:00,
2013-03-06 03:41:00,19.9,16.9,30.03,NE,52,2.3,2.3,88,0.00,FEW,,0.00,0.0,WeatherDisplay:10.37,2013-03-06 08:41:00,
2013-03-06 03:46:00,20.6,17.6,30.03,NE,52,2.3,2.3,88,0.00,FEW,,0.00,0.0,WeatherDisplay:10.37,2013-03-06 08:46:00,
2013-03-06 03:51:00,21.4,18.4,30.03,NE,52,2.3,2.3,88,0.00,FEW,,0.00,0.0,WeatherDisplay:10.37,2013-03-06 08:51:00,
2013-03-06 03:56:00,22.1,19.4,30.03,NE,52,2.3,0.0,89,0.00,FEW,,0.00,0.0,WeatherDisplay:10.37,2013-03-06 08:56:00,
2013-03-06 04:01:00,22.7,19.9,30.03,NE,52,2.3,2.3,89,0.00,FEW,,0.00,0.0,WeatherDisplay:10.37,2013-03-06 09:01:00,
2013-03-06 04:06:00,23.2,20.4,30.03,NE,52,1.2,0.0,89,0.00,FEW,,0.00,0.0,WeatherDisplay:10.37,2013-03-06 09:06:00,
2013-03-06 04:11:00,23.6,20.8,30.03,NE,52,1.2,1.2,89,0.00,FEW,,0.00,0.0,WeatherDisplay:10.37,2013-03-06 09:11:00,
2013-03-06 04:16:00,23.8,21.0,30.03,NE,52,0.0,0.0,89,0.00,FEW,,0.00,0.0,WeatherDisplay:10.37,2013-03-06 09:16:00,
2013-03-06 04:21:00,24.1,21.3,30.03,NE,52,0.0,0.0,89,0.00,FEW,,0.00,0.0,WeatherDisplay:10.37,2013-03-06 09:21:00,
2013-03-06 04:26:00,24.1,21.1,30.03,NE,52,1.0,1.0,88,0.00,OVC,,0.00,0.0,WeatherDisplay:10.37,2013-03-06 09:26:00,
2013-03-06 04:31:00,24.1,21.1,30.03,NE,53,2.3,2.3,88,0.00,OVC,,0.00,0.0,WeatherDisplay:10.37,2013-03-06 09:31:00,
2013-03-06 04:36:00,24.2,21.2,30.03,NE,53,0.0,0.0,88,0.00,OVC,,0.00,0.0,WeatherDisplay:10.37,2013-03-06 09:36:00,
2013-03-06 04:41:00,24.5,21.5,30.03,NE,53,0.0,0.0,88,0.00,OVC,,0.00,0.0,WeatherDisplay:10.37,2013-03-06 09:41:00,
2013-03-06 04:46:00,24.8,21.8,30.03,NE,53,1.2,1.2,88,0.00,OVC,,0.00,0.0,WeatherDisplay:10.37,2013-03-06 09:46:00,
2013-03-06 04:51:00,24.8,21.8,30.03,NE,53,0.0,0.0,88,0.00,OVC,,0.00,0.0,WeatherDisplay:10.37,2013-03-06 09:51:00,
2013-03-06 04:56:00,25.0,21.9,30.03,NE,53,1.2,1.2,88,0.00,OVC,,0.00,0.0,WeatherDisplay:10.37,2013-03-06 09:56:00,
2013-03-06 05:01:00,25.1,22.0,30.03,NE,53,2.3,2.3,88,0.00,OVC,,0.00,0.0,WeatherDisplay:10.37,2013-03-06 10:01:00,
2013-03-06 05:06:00,25.1,22.0,30.03,NE,53,0.0,0.0,88,0.00,OVC,,0.00,0.0,WeatherDisplay:10.37,2013-03-06 10:06:00,
2013-03-06 05:11:00,25.3,22.2,30.04,NE,53,0.0,0.0,88,0.00,OVC,,0.00,0.0,WeatherDisplay:10.37,2013-03-06 10:11:00,
2013-03-06 05:16:00,25.6,22.5,30.04,NE,53,0.0,0.0,88,0.00,OVC,,0.00,0.0,WeatherDisplay:10.37,2013-03-06 10:16:00,
2013-03-06 05:21:00,25.7,22.6,30.04,NE,53,0.0,0.0,88,0.00,OVC,,0.00,0.0,WeatherDisplay:10.37,2013-03-06 10:21:00,
2013-03-06 05:26:00,25.7,22.6,30.04,NE,53,0.0,0.0,88,0.00,OVC,,0.00,0.0,WeatherDisplay:10.37,2013-03-06 10:26:00,
2013-03-06 05:31:00,25.8,22.7,30.04,NE,53,0.0,0.0,88,0.00,OVC,,0.00,0.0,WeatherDisplay:10.37,2013-03-06 10:31:00,
2013-03-06 05:36:00,26.0,22.9,30.04,NE,53,0.0,0.0,88,0.00,OVC,,0.00,0.0,WeatherDisplay:10.37,2013-03-06 10:36:00,
2013-03-06 05:41:00,26.1,23.0,30.04,NE,53,0.0,0.0,88,0.00,OVC,,0.00,0.0,WeatherDisplay:10.37,2013-03-06 10:41:00,
2013-03-06 05:46:00,26.1,23.0,30.04,NE,53,0.0,0.0,88,0.00,OVC,,0.00,0.0,WeatherDisplay:10.37,2013-03-06 10:46:00,
2013-03-06 05:51:00,26.3,23.2,30.04,NE,53,2.3,0.0,88,0.00,OVC,,0.00,0.0,WeatherDisplay:10.37,2013-03-06 10:51:00,
2013-03-06 05:56:00,26.3,23.2,30.04,NE,54,1.2,1.2,88,0.00,OVC,,0.00,0.0,WeatherDisplay:10.37,2013-03-06 10:56:00,
2013-03-06 06:01:00,26.6,23.5,30.04,NE,56,2.3,2.3,88,0.00,OVC,,0.00,0.0,WeatherDisplay:10.37,2013-03-06 11:01:00,
2013-03-06 06:06:00,26.9,23.8,30.04,ENE,58,3.5,3.5,88,0.00,OVC,,0.00,0.0,WeatherDisplay:10.37,2013-03-06 11:06:00,
2013-03-06 06:11:00,27.0,23.9,30.05,ESE,103,3.5,3.5,88,0.00,OVC,,0.00,0.0,WeatherDisplay:10.37,2013-03-06 11:11:00,
2013-03-06 06:17:00,27.3,23.9,30.05,ESE,103,1.2,1.2,87,0.00,OVC,,0.00,0.0,WeatherDisplay:10.37,2013-03-06 11:17:00,
2013-03-06 06:22:00,27.5,24.1,30.05,ESE,105,2.3,2.3,87,0.00,OVC,,0.00,0.0,WeatherDisplay:10.37,2013-03-06 11:22:00,
2013-03-06 06:27:00,27.6,24.2,30.05,ESE,105,3.5,3.5,87,0.00,OVC,,0.00,0.0,WeatherDisplay:10.37,2013-03-06 11:27:00,
2013-03-06 06:32:00,27.8,24.4,30.05,ESE,105,2.3,2.3,87,0.00,OVC,,0.00,0.0,WeatherDisplay:10.37,2013-03-06 11:32:00,
2013-03-06 06:37:00,27.8,24.4,30.05,ESE,102,2.3,2.3,87,0.00,OVC,,0.00,0.0,WeatherDisplay:10.37,2013-03-06 11:37:00,
2013-03-06 06:42:00,27.9,24.5,30.06,East,100,2.0,2.0,87,0.00,OVC,,0.00,5.0,WeatherDisplay:10.37,2013-03-06 11:42:00,
2013-03-06 06:47:00,28.1,24.7,30.06,East,87,3.5,3.5,87,0.00,OVC,,0.00,7.0,WeatherDisplay:10.37,2013-03-06 11:47:00,
2013-03-06 06:52:00,28.1,24.5,30.06,ENE,75,3.5,3.5,86,0.00,OVC,,0.00,11.0,WeatherDisplay:10.37,2013-03-06 11:52:00,
2013-03-06 06:57:00,28.4,24.7,30.06,West,262,0.0,0.0,86,0.00,OVC,,0.00,14.0,WeatherDisplay:10.37,2013-03-06 11:57:00,
2013-03-06 07:02:00,28.5,24.8,30.06,West,262,0.0,0.0,86,0.00,OVC,,0.00,21.0,WeatherDisplay:10.37,2013-03-06 12:02:00,
2013-03-06 07:07:00,28.7,25.0,30.06,West,262,0.0,0.0,86,0.00,OVC,,0.00,28.0,WeatherDisplay:10.37,2013-03-06 12:07:00,
2013-03-06 07:12:00,28.8,25.1,30.07,West,261,0.0,0.0,86,0.00,OVC,,0.00,30.0,WeatherDisplay:10.37,2013-03-06 12:12:00,
2013-03-06 07:17:00,29.0,25.3,30.07,West,262,0.0,0.0,86,0.00,OVC,,0.00,18.0,WeatherDisplay:10.37,2013-03-06 12:17:00,
2013-03-06 07:22:00,29.1,25.4,30.07,West,262,0.0,0.0,86,0.00,OVC,,0.00,25.0,WeatherDisplay:10.37,2013-03-06 12:22:00,
2013-03-06 07:27:00,29.4,25.7,30.07,West,262,0.0,0.0,86,0.00,OVC,,0.00,33.0,WeatherDisplay:10.37,2013-03-06 12:27:00,
2013-03-06 07:32:00,29.5,25.8,30.07,West,262,0.0,0.0,86,0.00,OVC,,0.00,37.0,WeatherDisplay:10.37,2013-03-06 12:32:00,
2013-03-06 07:37:00,29.8,25.8,30.07,West,262,0.0,0.0,85,0.00,OVC,,0.00,42.0,WeatherDisplay:10.37,2013-03-06 12:37:00,
2013-03-06 07:42:00,30.1,25.8,30.08,West,262,1.0,1.0,84,0.00,OVC,,0.00,37.0,WeatherDisplay:10.37,2013-03-06 12:42:00,
2013-03-06 07:47:00,30.0,25.5,30.08,WSW,258,2.3,2.3,83,0.00,OVC,,0.00,39.0,WeatherDisplay:10.37,2013-03-06 12:47:00,
2013-03-06 07:52:00,29.8,25.3,30.08,WSW,258,0.0,0.0,83,0.00,OVC,,0.00,42.0,WeatherDisplay:10.37,2013-03-06 12:52:00,
2013-03-06 07:57:00,30.0,25.8,30.08,WSW,258,2.0,2.0,84,0.00,OVC,,0.00,54.0,WeatherDisplay:10.37,2013-03-06 12:57:00,
2013-03-06 08:02:00,30.1,25.8,30.08,WSW,258,0.0,0.0,84,0.00,OVC,,0.00,67.0,WeatherDisplay:10.37,2013-03-06 13:02:00,
2013-03-06 08:07:00,30.3,25.8,30.08,WSW,258,0.0,0.0,83,0.00,OVC,,0.00,56.0,WeatherDisplay:10.37,2013-03-06 13:07:00,
2013-03-06 08:12:00,30.7,26.1,30.08,WSW,258,0.0,0.0,83,0.00,OVC,,0.00,62.0,WeatherDisplay:10.37,2013-03-06 13:12:00,
2013-03-06 08:17:00,31.0,26.1,30.08,WSW,258,0.0,0.0,82,0.00,OVC,,0.00,72.0,WeatherDisplay:10.37,2013-03-06 13:17:00,
2013-03-06 08:22:00,31.3,26.4,30.08,WSW,258,0.0,0.0,82,0.00,OVC,,0.00,84.0,WeatherDisplay:10.37,2013-03-06 13:22:00,
2013-03-06 08:27:00,31.5,26.6,30.08,WSW,258,0.0,0.0,82,0.00,OVC,,0.00,86.0,WeatherDisplay:10.37,2013-03-06 13:27:00,
2013-03-06 08:32:00,31.5,26.3,30.08,South,181,3.5,3.5,81,0.00,OVC,,0.00,102.0,WeatherDisplay:10.37,2013-03-06 13:32:00,
2013-03-06 08:37:00,31.5,26.3,30.08,South,181,0.0,0.0,81,0.00,OVC,,0.00,102.0,WeatherDisplay:10.37,2013-03-06 13:37:00,
2013-03-06 08:42:00,31.6,26.1,30.08,South,181,1.2,1.2,80,0.00,OVC,,0.00,120.0,WeatherDisplay:10.37,2013-03-06 13:42:00,
2013-03-06 08:47:00,31.8,26.3,30.08,South,181,0.0,0.0,80,0.00,OVC,,0.00,114.0,WeatherDisplay:10.37,2013-03-06 13:47:00,
2013-03-06 08:52:00,32.1,26.6,30.08,South,181,0.0,0.0,80,0.00,OVC,,0.00,128.0,WeatherDisplay:10.37,2013-03-06 13:52:00,
2013-03-06 08:57:00,32.4,26.6,30.09,South,181,1.0,0.0,79,0.00,OVC,,0.00,146.0,WeatherDisplay:10.37,2013-03-06 13:57:00,
2013-03-06 09:02:00,32.4,26.6,30.09,South,181,2.3,2.3,79,0.00,OVC,,0.00,155.0,WeatherDisplay:10.37,2013-03-06 14:02:00,
2013-03-06 09:07:00,32.4,26.6,30.09,South,170,4.0,4.0,79,0.00,OVC,,0.00,128.0,WeatherDisplay:10.37,2013-03-06 14:07:00,
2013-03-06 09:12:00,32.5,26.7,30.09,WSW,241,2.3,2.3,79,0.00,OVC,,0.00,121.0,WeatherDisplay:10.37,2013-03-06 14:12:00,
2013-03-06 09:17:00,32.5,26.7,30.09,SSE,166,3.5,3.5,79,0.00,OVC,,0.00,113.0,WeatherDisplay:10.37,2013-03-06 14:17:00,
2013-03-06 09:22:00,32.5,26.4,30.09,SSE,166,2.3,2.3,78,0.00,OVC,,0.00,123.0,WeatherDisplay:10.37,2013-03-06 14:22:00,
2013-03-06 09:27:00,32.5,26.4,30.09,SSE,166,2.3,2.3,78,0.00,OVC,,0.00,121.0,WeatherDisplay:10.37,2013-03-06 14:27:00,
2013-03-06 09:32:00,32.7,26.6,30.09,SSE,166,0.0,0.0,78,0.00,OVC,,0.00,128.0,WeatherDisplay:10.37,2013-03-06 14:32:00,
2013-03-06 09:37:00,32.9,26.8,30.09,SSE,166,0.0,0.0,78,0.00,OVC,,0.00,139.0,WeatherDisplay:10.37,2013-03-06 14:37:00,
2013-03-06 09:42:00,33.1,27.0,30.09,SSE,166,0.0,0.0,78,0.00,OVC,,0.00,148.0,WeatherDisplay:10.37,2013-03-06 14:42:00,
2013-03-06 09:47:00,33.5,27.4,30.09,SSE,166,0.0,0.0,78,0.00,OVC,,0.00,153.0,WeatherDisplay:10.37,2013-03-06 14:47:00,
2013-03-06 09:52:00,34.1,28.0,30.09,SSE,166,0.0,0.0,78,0.00,OVC,,0.00,153.0,WeatherDisplay:10.37,2013-03-06 14:52:00,
2013-03-06 09:57:00,34.6,28.1,30.08,SSE,166,0.0,0.0,77,0.00,OVC,,0.00,146.0,WeatherDisplay:10.37,2013-03-06 14:57:00,
2013-03-06 10:02:00,35.5,29.0,30.08,SSE,166,0.0,0.0,77,0.00,OVC,,0.00,149.0,WeatherDisplay:10.37,2013-03-06 15:02:00,
2013-03-06 10:07:00,36.2,29.0,30.08,SSE,166,0.0,0.0,75,0.00,OVC,,0.00,156.0,WeatherDisplay:10.37,2013-03-06 15:07:00,
2013-03-06 10:12:00,36.6,28.8,30.08,SSE,166,0.0,0.0,73,0.00,OVC,,0.00,172.0,WeatherDisplay:10.37,2013-03-06 15:12:00,
2013-03-06 10:17:00,37.0,28.8,30.08,SSE,166,0.0,0.0,72,0.00,OVC,,0.00,171.0,WeatherDisplay:10.37,2013-03-06 15:17:00,
2013-03-06 10:22:00,37.5,28.9,30.08,SSE,166,0.0,0.0,71,0.00,OVC,,0.00,188.0,WeatherDisplay:10.37,2013-03-06 15:22:00,
2013-03-06 10:27:00,37.9,29.0,30.08,NE,47,2.0,2.0,70,0.00,OVC,,0.00,211.0,WeatherDisplay:10.37,2013-03-06 15:27:00,
2013-03-06 10:32:00,38.3,29.0,30.08,NNE,26,3.5,3.5,69,0.00,OVC,,0.00,234.0,WeatherDisplay:10.37,2013-03-06 15:32:00,
2013-03-06 10:37:00,38.2,28.6,30.08,ENE,66,6.0,6.0,68,0.00,OVC,,0.00,283.0,WeatherDisplay:10.37,2013-03-06 15:37:00,
2013-03-06 10:42:00,38.0,28.4,30.07,North,4,2.3,2.3,68,0.00,OVC,,0.00,339.0,WeatherDisplay:10.37,2013-03-06 15:42:00,
2013-03-06 10:47:00,38.5,28.5,30.07,North,4,0.0,0.0,67,0.00,OVC,,0.00,348.0,WeatherDisplay:10.37,2013-03-06 15:47:00,
2013-03-06 10:52:00,39.2,28.8,30.07,North,8,1.2,0.0,66,0.00,OVC,,0.00,329.0,WeatherDisplay:10.37,2013-03-06 15:52:00,
2013-03-06 10:57:00,39.5,28.3,30.07,North,1,7.0,7.0,64,0.00,OVC,,0.00,301.0,WeatherDisplay:10.37,2013-03-06 15:57:00,
2013-03-06 11:02:00,39.3,28.1,30.07,NE,51,6.9,6.9,64,0.00,OVC,,0.00,288.0,WeatherDisplay:10.37,2013-03-06 16:02:00,
2013-03-06 11:07:00,38.9,27.8,30.07,NE,47,3.5,3.5,64,0.00,OVC,,0.00,258.0,WeatherDisplay:10.37,2013-03-06 16:07:00,
2013-03-06 11:12:00,38.9,27.8,30.07,NNE,33,5.0,5.0,64,0.00,OVC,,0.00,253.0,WeatherDisplay:10.37,2013-03-06 16:12:00,
2013-03-06 11:17:00,39.1,27.9,30.07,NE,37,4.6,4.6,64,0.00,OVC,,0.00,250.0,WeatherDisplay:10.37,2013-03-06 16:17:00,
2013-03-06 11:22:00,39.3,28.5,30.07,NE,54,3.5,3.5,65,0.00,OVC,,0.00,223.0,WeatherDisplay:10.37,2013-03-06 16:22:00,
2013-03-06 11:27:00,39.5,28.3,30.08,ESE,123,3.0,3.0,64,0.00,OVC,,0.00,230.0,WeatherDisplay:10.37,2013-03-06 16:27:00,
2013-03-06 11:32:00,39.6,28.4,30.08,ESE,109,3.5,3.5,64,0.00,OVC,,0.00,227.0,WeatherDisplay:10.37,2013-03-06 16:32:00,
2013-03-06 11:37:00,39.6,28.4,30.08,ESE,111,9.0,9.0,64,0.00,OVC,,0.00,199.0,WeatherDisplay:10.37,2013-03-06 16:37:00,
2013-03-06 11:42:00,39.5,28.3,30.08,East,84,7.0,7.0,64,0.00,OVC,,0.00,253.0,WeatherDisplay:10.37,2013-03-06 16:42:00,
2013-03-06 11:47:00,39.5,28.3,30.08,East,80,4.6,4.6,64,0.00,OVC,,0.00,232.0,WeatherDisplay:10.37,2013-03-06 16:47:00,
2013-03-06 11:52:00,39.5,28.3,30.08,North,357,10.0,10.0,64,0.00,OVC,,0.00,225.0,WeatherDisplay:10.37,2013-03-06 16:52:00,
2013-03-06 11:57:00,39.8,28.6,30.08,NE,56,1.2,0.0,64,0.00,OVC,,0.00,302.0,WeatherDisplay:10.37,2013-03-06 16:57:00,
2013-03-06 12:02:00,40.2,28.2,30.08,ENE,67,3.5,0.0,62,0.00,OVC,,0.00,318.0,WeatherDisplay:10.37,2013-03-06 17:02:00,
2013-03-06 12:07:00,40.5,28.5,30.08,ENE,69,4.6,4.6,62,0.00,OVC,,0.00,371.0,WeatherDisplay:10.37,2013-03-06 17:07:00,
2013-03-06 12:12:00,40.6,27.8,30.08,East,86,6.0,6.0,60,0.00,OVC,,0.00,279.0,WeatherDisplay:10.37,2013-03-06 17:12:00,
2013-03-06 12:17:00,40.8,28.0,30.08,ENE,59,3.5,3.5,60,0.00,OVC,,0.00,302.0,WeatherDisplay:10.37,2013-03-06 17:17:00,
2013-03-06 12:22:00,41.1,28.3,30.08,ESE,105,3.0,3.0,60,0.00,OVC,,0.00,274.0,WeatherDisplay:10.37,2013-03-06 17:22:00,
2013-03-06 12:27:00,41.2,28.4,30.08,NNE,22,5.0,5.0,60,0.00,OVC,,0.00,246.0,WeatherDisplay:10.37,2013-03-06 17:27:00,
2013-03-06 12:32:00,41.2,28.4,30.08,ENE,77,2.3,0.0,60,0.00,OVC,,0.00,193.0,WeatherDisplay:10.37,2013-03-06 17:32:00,
2013-03-06 12:37:00,41.5,28.2,30.08,NE,37,3.0,3.0,59,0.00,OVC,,0.00,236.0,WeatherDisplay:10.37,2013-03-06 17:37:00,
2013-03-06 12:42:00,41.6,27.9,30.07,East,85,10.4,10.4,58,0.00,OVC,,0.00,267.0,WeatherDisplay:10.37,2013-03-06 17:42:00,
2013-03-06 12:47:00,41.8,27.7,30.07,East,94,5.8,5.8,57,0.00,OVC,,0.00,221.0,WeatherDisplay:10.37,2013-03-06 17:47:00,
2013-03-06 12:53:00,42.1,27.5,30.07,NE,55,5.0,5.0,56,0.00,OVC,,0.00,225.0,WeatherDisplay:10.37,2013-03-06 17:53:00,
2013-03-06 12:58:00,42.1,27.5,30.07,NE,36,12.0,12.0,56,0.00,OVC,,0.00,223.0,WeatherDisplay:10.37,2013-03-06 17:58:00,
2013-03-06 13:03:00,41.9,27.3,30.07,NE,56,11.5,11.5,56,0.00,OVC,,0.00,288.0,WeatherDisplay:10.37,2013-03-06 18:03:00,
2013-03-06 13:08:00,41.9,27.3,30.07,NE,35,14.0,14.0,56,0.00,OVC,,0.00,309.0,WeatherDisplay:10.37,2013-03-06 18:08:00,
2013-03-06 13:13:00,41.9,27.3,30.07,ESE,119,7.0,7.0,56,0.00,OVC,,0.00,380.0,WeatherDisplay:10.37,2013-03-06 18:13:00,
2013-03-06 13:18:00,42.2,27.2,30.07,NE,45,11.5,11.5,55,0.00,OVC,,0.00,322.0,WeatherDisplay:10.37,2013-03-06 18:18:00,
2013-03-06 13:23:00,42.2,27.2,30.07,ENE,62,12.0,12.0,55,0.00,OVC,,0.00,385.0,WeatherDisplay:10.37,2013-03-06 18:23:00,
2013-03-06 13:28:00,42.2,27.2,30.07,NNE,30,14.0,14.0,55,0.00,OVC,,0.00,234.0,WeatherDisplay:10.37,2013-03-06 18:28:00,
2013-03-06 13:33:00,41.9,26.9,30.07,NNE,26,15.0,15.0,55,0.00,OVC,,0.00,290.0,WeatherDisplay:10.37,2013-03-06 18:33:00,
2013-03-06 13:38:00,41.8,26.4,30.07,ENE,75,14.0,14.0,54,0.00,OVC,,0.00,278.0,WeatherDisplay:10.37,2013-03-06 18:38:00,
2013-03-06 13:43:00,41.9,26.4,30.08,NE,49,12.0,12.0,54,0.00,OVC,,0.00,216.0,WeatherDisplay:10.37,2013-03-06 18:43:00,
2013-03-06 13:48:00,42.1,26.2,30.08,NNE,30,10.4,10.4,53,0.00,OVC,,0.00,264.0,WeatherDisplay:10.37,2013-03-06 18:48:00,
2013-03-06 13:53:00,42.2,26.3,30.08,East,85,12.0,12.0,53,0.00,OVC,,0.00,436.0,WeatherDisplay:10.37,2013-03-06 18:53:00,
2013-03-06 13:58:00,42.6,26.6,30.08,NNE,26,10.0,10.0,53,0.00,OVC,,0.00,299.0,WeatherDisplay:10.37,2013-03-06 18:58:00,
2013-03-06 14:03:00,42.6,26.6,30.08,NNE,26,7.0,7.0,53,0.00,OVC,,0.00,378.0,WeatherDisplay:10.37,2013-03-06 19:03:00,
2013-03-06 14:08:00,42.5,27.0,30.08,NNE,23,10.0,10.0,54,0.00,OVC,,0.00,288.0,WeatherDisplay:10.37,2013-03-06 19:08:00,
2013-03-06 14:13:00,42.6,27.1,30.07,NNE,22,4.6,0.0,54,0.00,OVC,,0.00,262.0,WeatherDisplay:10.37,2013-03-06 19:13:00,
2013-03-06 14:18:00,42.8,27.7,30.07,NE,56,10.4,10.4,55,0.00,OVC,,0.00,264.0,WeatherDisplay:10.37,2013-03-06 19:18:00,
2013-03-06 14:23:00,42.3,26.4,30.07,NE,37,12.7,12.7,53,0.00,OVC,,0.00,141.0,WeatherDisplay:10.37,2013-03-06 19:23:00,
2013-03-06 14:28:00,41.9,26.4,30.08,North,358,15.0,15.0,54,0.00,OVC,,0.00,123.0,WeatherDisplay:10.37,2013-03-06 19:28:00,
2013-03-06 14:33:00,41.6,26.2,30.08,NNW,347,12.0,12.0,54,0.00,OVC,,0.00,137.0,WeatherDisplay:10.37,2013-03-06 19:33:00,
2013-03-06 14:38:00,41.6,26.2,30.08,ENE,75,10.0,10.0,54,0.00,OVC,,0.00,174.0,WeatherDisplay:10.37,2013-03-06 19:38:00,
2013-03-06 14:43:00,41.6,26.2,30.08,East,87,7.0,7.0,54,0.00,OVC,,0.00,178.0,WeatherDisplay:10.37,2013-03-06 19:43:00,
2013-03-06 14:48:00,41.6,26.2,30.08,ESE,105,11.5,11.5,54,0.00,OVC,,0.00,156.0,WeatherDisplay:10.37,2013-03-06 19:48:00,
2013-03-06 14:53:00,41.5,26.5,30.08,NNE,20,9.2,9.2,55,0.00,OVC,,0.00,120.0,WeatherDisplay:10.37,2013-03-06 19:53:00,
2013-03-06 14:58:00,41.5,26.5,30.08,East,87,5.8,5.8,55,0.00,OVC,,0.00,139.0,WeatherDisplay:10.37,2013-03-06 19:58:00,
2013-03-06 15:03:00,41.5,26.1,30.08,East,90,5.8,5.8,54,0.00,OVC,,0.00,134.0,WeatherDisplay:10.37,2013-03-06 20:03:00,
2013-03-06 15:08:00,41.3,25.9,30.08,NNE,19,13.0,13.0,54,0.00,OVC,,0.00,109.0,WeatherDisplay:10.37,2013-03-06 20:08:00,
2013-03-06 15:13:00,41.1,25.7,30.08,NE,54,14.0,14.0,54,0.00,OVC,,0.00,97.0,WeatherDisplay:10.37,2013-03-06 20:13:00,
2013-03-06 15:18:00,40.8,25.9,30.08,NE,42,12.0,12.0,55,0.00,OVC,,0.00,102.0,WeatherDisplay:10.37,2013-03-06 20:18:00,
2013-03-06 15:23:00,40.8,25.9,30.08,ESE,116,13.0,13.0,55,0.00,OVC,,0.00,163.0,WeatherDisplay:10.37,2013-03-06 20:23:00,
2013-03-06 15:28:00,40.9,26.0,30.08,SSW,209,17.0,17.0,55,0.00,OVC,,0.00,185.0,WeatherDisplay:10.37,2013-03-06 20:28:00,
2013-03-06 15:33:00,40.9,26.0,30.08,East,85,11.5,11.5,55,0.00,OVC,,0.00,123.0,WeatherDisplay:10.37,2013-03-06 20:33:00,
2013-03-06 15:38:00,40.8,25.9,30.08,NNE,23,17.3,17.3,55,0.00,OVC,,0.00,84.0,WeatherDisplay:10.37,2013-03-06 20:38:00,
2013-03-06 15:43:00,40.6,26.1,30.08,ESE,111,11.0,11.0,56,0.00,OVC,,0.00,84.0,WeatherDisplay:10.37,2013-03-06 20:43:00,
2013-03-06 15:48:00,40.5,26.0,30.08,ENE,72,13.0,13.0,56,0.00,OVC,,0.00,118.0,WeatherDisplay:10.37,2013-03-06 20:48:00,
2013-03-06 15:53:00,40.5,25.6,30.08,ENE,75,13.0,13.0,55,0.00,OVC,,0.00,79.0,WeatherDisplay:10.37,2013-03-06 20:53:00,
2013-03-06 15:58:00,40.5,25.6,30.09,ENE,73,10.4,10.4,55,0.00,OVC,,0.00,56.0,WeatherDisplay:10.37,2013-03-06 20:58:00,
2013-03-06 16:03:00,40.3,25.4,30.09,ESE,109,12.0,12.0,55,0.00,OVC,,0.00,53.0,WeatherDisplay:10.37,2013-03-06 21:03:00,
2013-03-06 16:08:00,40.3,25.4,30.09,NE,43,14.0,14.0,55,0.00,OVC,,0.00,40.0,WeatherDisplay:10.37,2013-03-06 21:08:00,
2013-03-06 16:13:00,40.2,26.6,30.09,East,87,11.5,11.5,58,0.00,OVC,,0.00,47.0,WeatherDisplay:10.37,2013-03-06 21:13:00,
2013-03-06 16:18:00,40.1,25.6,30.09,North,8,9.2,9.2,56,0.00,OVC,,0.00,58.0,WeatherDisplay:10.37,2013-03-06 21:18:00,
2013-03-06 16:23:00,40.1,25.2,30.09,East,79,10.4,10.4,55,0.00,OVC,,0.00,65.0,WeatherDisplay:10.37,2013-03-06 21:23:00,
2013-03-06 16:28:00,39.9,25.0,30.10,ENE,72,11.5,11.5,55,0.00,OVC,,0.00,65.0,WeatherDisplay:10.37,2013-03-06 21:28:00,
2013-03-06 16:33:00,39.9,25.0,30.10,NE,35,11.5,11.5,55,0.00,OVC,,0.00,56.0,WeatherDisplay:10.37,2013-03-06 21:33:00,
2013-03-06 16:38:00,39.8,24.9,30.10,ENE,77,6.0,6.0,55,0.00,OVC,,0.00,53.0,WeatherDisplay:10.37,2013-03-06 21:38:00,
2013-03-06 16:43:00,39.8,25.4,30.10,East,84,10.0,10.0,56,0.00,OVC,,0.00,63.0,WeatherDisplay:10.37,2013-03-06 21:43:00,
2013-03-06 16:48:00,39.8,25.4,30.10,North,11,5.8,5.8,56,0.00,OVC,,0.00,51.0,WeatherDisplay:10.37,2013-03-06 21:48:00,
2013-03-06 16:53:00,39.8,25.4,30.10,East,82,3.5,3.5,56,0.00,OVC,,0.00,40.0,WeatherDisplay:10.37,2013-03-06 21:53:00,
2013-03-06 16:58:00,39.8,24.9,30.11,NE,54,10.4,10.4,55,0.00,OVC,,0.00,33.0,WeatherDisplay:10.37,2013-03-06 21:58:00,
2013-03-06 17:03:00,39.6,24.3,30.11,East,96,6.0,6.0,54,0.00,OVC,,0.00,35.0,WeatherDisplay:10.37,2013-03-06 22:03:00,
2013-03-06 17:08:00,39.6,24.3,30.11,East,87,10.0,10.0,54,0.00,OVC,,0.00,33.0,WeatherDisplay:10.37,2013-03-06 22:08:00,
2013-03-06 17:13:00,39.6,24.3,30.11,East,85,14.0,14.0,54,0.00,OVC,,0.00,32.0,WeatherDisplay:10.37,2013-03-06 22:13:00,
2013-03-06 17:18:00,39.5,24.2,30.11,East,85,8.1,8.1,54,0.00,OVC,,0.00,30.0,WeatherDisplay:10.37,2013-03-06 22:18:00,
2013-03-06 17:23:00,39.3,24.5,30.11,East,87,11.5,11.5,55,0.00,OVC,,0.00,39.0,WeatherDisplay:10.37,2013-03-06 22:23:00,
2013-03-06 17:28:00,39.2,24.8,30.12,ENE,71,6.0,6.0,56,0.00,OVC,,0.00,33.0,WeatherDisplay:10.37,2013-03-06 22:28:00,
2013-03-06 17:33:00,39.1,24.7,30.12,ENE,75,5.8,5.8,56,0.00,OVC,,0.00,25.0,WeatherDisplay:10.37,2013-03-06 22:33:00,
2013-03-06 17:38:00,39.1,24.7,30.12,East,87,4.0,4.0,56,0.00,OVC,,0.00,12.0,WeatherDisplay:10.37,2013-03-06 22:38:00,
2013-03-06 17:43:00,38.9,24.9,30.13,East,86,6.0,6.0,57,0.00,OVC,,0.00,7.0,WeatherDisplay:10.37,2013-03-06 22:43:00,
2013-03-06 17:48:00,38.8,24.9,30.13,East,87,6.0,6.0,57,0.00,OVC,,0.00,5.0,WeatherDisplay:10.37,2013-03-06 22:48:00,
2013-03-06 17:53:00,38.6,25.1,30.13,East,86,9.0,9.0,58,0.00,OVC,,0.00,0.0,WeatherDisplay:10.37,2013-03-06 22:53:00,
2013-03-06 17:58:00,38.5,24.6,30.13,East,87,6.0,6.0,57,0.00,OVC,,0.00,0.0,WeatherDisplay:10.37,2013-03-06 22:58:00,
2013-03-06 18:03:00,38.5,25.0,30.13,East,90,2.3,2.3,58,0.00,OVC,,0.00,0.0,WeatherDisplay:10.37,2013-03-06 23:03:00,
2013-03-06 18:08:00,38.3,24.8,30.13,East,97,7.0,7.0,58,0.00,OVC,,0.00,0.0,WeatherDisplay:10.37,2013-03-06 23:08:00,
2013-03-06 18:13:00,38.2,24.7,30.13,ESE,106,9.2,9.2,58,0.00,OVC,,0.00,0.0,WeatherDisplay:10.37,2013-03-06 23:13:00,
2013-03-06 18:18:00,38.2,25.1,30.13,ESE,102,5.0,5.0,59,0.00,OVC,,0.00,0.0,WeatherDisplay:10.37,2013-03-06 23:18:00,
2013-03-06 18:23:00,38.0,24.9,30.13,ESE,102,5.0,5.0,59,0.00,OVC,,0.00,0.0,WeatherDisplay:10.37,2013-03-06 23:23:00,
2013-03-06 18:28:00,37.9,24.8,30.14,East,95,7.0,7.0,59,0.00,OVC,,0.00,0.0,WeatherDisplay:10.37,2013-03-06 23:28:00,
2013-03-06 18:33:00,37.9,24.8,30.14,East,87,9.0,9.0,59,0.00,OVC,,0.00,0.0,WeatherDisplay:10.37,2013-03-06 23:33:00,
2013-03-06 18:38:00,37.9,24.8,30.14,East,85,7.0,7.0,59,0.00,OVC,,0.00,0.0,WeatherDisplay:10.37,2013-03-06 23:38:00,
2013-03-06 18:43:00,37.9,24.4,30.14,ENE,63,6.9,6.9,58,0.00,OVC,,0.00,0.0,WeatherDisplay:10.37,2013-03-06 23:43:00,
2013-03-06 18:48:00,37.9,24.4,30.14,East,86,5.0,5.0,58,0.00,OVC,,0.00,0.0,WeatherDisplay:10.37,2013-03-06 23:48:00,
2013-03-06 18:53:00,37.9,24.4,30.14,East,86,9.2,9.2,58,0.00,OVC,,0.00,0.0,WeatherDisplay:10.37,2013-03-06 23:53:00,
2013-03-06 18:58:00,37.9,24.4,30.14,ENE,61,3.5,3.5,58,0.00,OVC,,0.00,0.0,WeatherDisplay:10.37,2013-03-06 23:58:00,
2013-03-06 19:03:00,37.9,24.4,30.14,East,79,8.1,8.1,58,0.00,OVC,,0.00,0.0,WeatherDisplay:10.37,2013-03-07 00:03:00,
2013-03-06 19:08:00,37.9,24.4,30.14,ENE,62,4.0,4.0,58,0.00,OVC,,0.00,0.0,WeatherDisplay:10.37,2013-03-07 00:08:00,
2013-03-06 19:13:00,37.8,24.3,30.15,NE,52,5.0,5.0,58,0.00,OVC,,0.00,0.0,WeatherDisplay:10.37,2013-03-07 00:13:00,
2013-03-06 19:18:00,37.8,24.3,30.15,NNE,14,4.0,4.0,58,0.00,OVC,,0.00,0.0,WeatherDisplay:10.37,2013-03-07 00:18:00,
2013-03-06 19:23:00,37.8,24.3,30.15,North,5,3.5,3.5,58,0.00,OVC,,0.00,0.0,WeatherDisplay:10.37,2013-03-07 00:23:00,
2013-03-06 19:28:00,37.6,24.1,30.15,NNE,15,3.5,0.0,58,0.00,OVC,,0.00,0.0,WeatherDisplay:10.37,2013-03-07 00:28:00,
2013-03-06 19:33:00,37.6,24.1,30.15,NE,56,7.0,7.0,58,0.00,OVC,,0.00,0.0,WeatherDisplay:10.37,2013-03-07 00:33:00,
2013-03-06 19:38:00,37.5,24.1,30.15,NE,45,5.0,5.0,58,0.00,OVC,,0.00,0.0,WeatherDisplay:10.37,2013-03-07 00:38:00,
2013-03-06 19:43:00,37.5,24.1,30.15,ENE,61,3.5,3.5,58,0.00,OVC,,0.00,0.0,WeatherDisplay:10.37,2013-03-07 00:43:00,
2013-03-06 19:48:00,37.3,23.9,30.15,NE,54,4.6,4.6,58,0.00,OVC,,0.00,0.0,WeatherDisplay:10.37,2013-03-07 00:48:00,
2013-03-06 19:53:00,37.3,23.4,30.15,North,349,3.5,3.5,57,0.00,OVC,,0.00,0.0,WeatherDisplay:10.37,2013-03-07 00:53:00,
2013-03-06 19:58:00,37.3,23.4,30.15,NE,42,6.0,6.0,57,0.00,OVC,,0.00,0.0,WeatherDisplay:10.37,2013-03-07 00:58:00,
2013-03-06 20:03:00,37.3,23.4,30.15,ENE,61,4.0,4.0,57,0.00,OVC,,0.00,0.0,WeatherDisplay:10.37,2013-03-07 01:03:00,
2013-03-06 20:08:00,37.3,23.0,30.15,ENE,57,3.0,3.0,56,0.00,OVC,,0.00,0.0,WeatherDisplay:10.37,2013-03-07 01:08:00,
2013-03-06 20:13:00,37.3,23.0,30.14,NE,50,6.0,6.0,56,0.00,OVC,,0.00,0.0,WeatherDisplay:10.37,2013-03-07 01:13:00,
2013-03-06 20:18:00,37.3,23.0,30.14,NNE,28,3.5,3.5,56,0.00,OVC,,0.00,0.0,WeatherDisplay:10.37,2013-03-07 01:18:00,
2013-03-06 20:23:00,37.3,23.4,30.14,NNE,21,4.0,4.0,57,0.00,OVC,,0.00,0.0,WeatherDisplay:10.37,2013-03-07 01:23:00,
2013-03-06 20:28:00,37.2,23.8,30.14,North,4,4.6,4.6,58,0.00,OVC,,0.00,0.0,WeatherDisplay:10.37,2013-03-07 01:28:00,
2013-03-06 20:33:00,37.2,23.8,30.14,NNE,23,3.5,3.5,58,0.00,OVC,,0.00,0.0,WeatherDisplay:10.37,2013-03-07 01:33:00,
2013-03-06 20:38:00,37.0,23.6,30.14,NE,41,5.0,5.0,58,0.00,OVC,,0.00,0.0,WeatherDisplay:10.37,2013-03-07 01:38:00,
2013-03-06 20:43:00,37.0,23.6,30.14,NNE,26,3.5,3.5,58,0.00,OVC,,0.00,0.0,WeatherDisplay:10.37,2013-03-07 01:43:00,
2013-03-06 20:48:00,36.9,23.5,30.14,NNE,19,5.0,5.0,58,0.00,OVC,,0.00,0.0,WeatherDisplay:10.37,2013-03-07 01:48:00,
2013-03-06 20:53:00,37.0,23.6,30.14,North,358,4.0,4.0,58,0.00,OVC,,0.00,0.0,WeatherDisplay:10.37,2013-03-07 01:53:00,
2013-03-06 20:58:00,36.9,23.5,30.14,North,6,1.2,1.2,58,0.00,OVC,,0.00,0.0,WeatherDisplay:10.37,2013-03-07 01:58:00,
2013-03-06 21:03:00,36.9,23.5,30.14,NNE,17,3.5,3.5,58,0.00,OVC,,0.00,0.0,WeatherDisplay:10.37,2013-03-07 02:03:00,
2013-03-06 21:08:00,36.9,23.5,30.14,NE,49,1.2,1.2,58,0.00,OVC,,0.00,0.0,WeatherDisplay:10.37,2013-03-07 02:08:00,
2013-03-06 21:13:00,36.9,23.5,30.14,NE,48,1.2,1.2,58,0.00,OVC,,0.00,0.0,WeatherDisplay:10.37,2013-03-07 02:13:00,
2013-03-06 21:18:00,36.9,23.5,30.14,NE,52,1.2,1.2,58,0.00,OVC,,0.00,0.0,WeatherDisplay:10.37,2013-03-07 02:18:00,
2013-03-06 21:23:00,36.9,23.1,30.14,NE,47,1.2,0.0,57,0.00,OVC,,0.00,0.0,WeatherDisplay:10.37,2013-03-07 02:23:00,
2013-03-06 21:28:00,36.9,23.1,30.15,NE,47,0.0,0.0,57,0.00,OVC,,0.00,0.0,WeatherDisplay:10.37,2013-03-07 02:28:00,
2013-03-06 21:33:00,36.8,23.0,30.15,NE,47,2.3,2.3,57,0.00,OVC,,0.00,0.0,WeatherDisplay:10.37,2013-03-07 02:33:00,
2013-03-06 21:38:00,36.8,22.6,30.15,NE,56,4.0,4.0,56,0.00,OVC,,0.00,0.0,WeatherDisplay:10.37,2013-03-07 02:38:00,
2013-03-06 21:43:00,36.8,22.6,30.14,NE,51,3.0,3.0,56,0.00,OVC,,0.00,0.0,WeatherDisplay:10.37,2013-03-07 02:43:00,
2013-03-06 21:48:00,36.8,22.6,30.14,ENE,57,4.6,4.6,56,0.00,OVC,,0.00,0.0,WeatherDisplay:10.37,2013-03-07 02:48:00,
2013-03-06 21:53:00,36.8,22.6,30.14,ENE,57,1.2,1.2,56,0.00,OVC,,0.00,0.0,WeatherDisplay:10.37,2013-03-07 02:53:00,
2013-03-06 21:58:00,36.8,22.1,30.14,NE,54,1.0,0.0,55,0.00,OVC,,0.00,0.0,WeatherDisplay:10.37,2013-03-07 02:58:00,
2013-03-06 22:03:00,36.8,22.1,30.14,NE,54,5.0,5.0,55,0.00,OVC,,0.00,0.0,WeatherDisplay:10.37,2013-03-07 03:03:00,
2013-03-06 22:08:00,36.9,21.8,30.14,East,89,7.0,7.0,54,0.00,OVC,,0.00,0.0,WeatherDisplay:10.37,2013-03-07 03:08:00,
2013-03-06 22:13:00,36.9,21.8,30.14,ENE,62,2.0,2.0,54,0.00,OVC,,0.00,0.0,WeatherDisplay:10.37,2013-03-07 03:13:00,
2013-03-06 22:18:00,36.8,22.1,30.14,ENE,66,5.0,5.0,55,0.00,OVC,,0.00,0.0,WeatherDisplay:10.37,2013-03-07 03:18:00,
2013-03-06 22:23:00,36.6,21.9,30.14,East,86,6.0,6.0,55,0.00,OVC,,0.00,0.0,WeatherDisplay:10.37,2013-03-07 03:23:00,
2013-03-06 22:28:00,36.6,21.9,30.14,East,87,6.0,6.0,55,0.00,OVC,,0.00,0.0,WeatherDisplay:10.37,2013-03-07 03:28:00,
2013-03-06 22:33:00,36.6,21.9,30.14,East,81,3.5,3.5,55,0.00,OVC,,0.00,0.0,WeatherDisplay:10.37,2013-03-07 03:33:00,
2013-03-06 22:38:00,36.5,22.3,30.14,ENE,65,3.0,3.0,56,0.00,OVC,,0.00,0.0,WeatherDisplay:10.37,2013-03-07 03:38:00,
2013-03-06 22:43:00,36.5,22.3,30.14,East,87,3.5,3.5,56,0.00,OVC,,0.00,0.0,WeatherDisplay:10.37,2013-03-07 03:43:00,
2013-03-06 22:48:00,36.3,22.1,30.14,East,95,6.0,6.0,56,0.00,OVC,,0.00,0.0,WeatherDisplay:10.37,2013-03-07 03:48:00,
2013-03-06 22:53:00,36.3,22.1,30.14,East,88,1.2,1.2,56,0.00,OVC,,0.00,0.0,WeatherDisplay:10.37,2013-03-07 03:53:00,
2013-03-06 22:58:00,36.3,22.1,30.14,East,80,8.1,8.1,56,0.00,OVC,,0.00,0.0,WeatherDisplay:10.37,2013-03-07 03:58:00,
2013-03-06 23:03:00,36.5,21.8,30.14,East,82,11.5,11.5,55,0.00,OVC,,0.00,0.0,WeatherDisplay:10.37,2013-03-07 04:03:00,
2013-03-06 23:08:00,36.6,21.9,30.14,NE,40,9.2,9.2,55,0.00,OVC,,0.00,0.0,WeatherDisplay:10.37,2013-03-07 04:08:00,
2013-03-06 23:14:00,36.5,21.8,30.14,East,87,11.0,11.0,55,0.00,OVC,,0.00,0.0,WeatherDisplay:10.37,2013-03-07 04:14:00,
2013-03-06 23:19:00,36.5,21.8,30.14,ENE,73,8.1,8.1,55,0.00,OVC,,0.00,0.0,WeatherDisplay:10.37,2013-03-07 04:19:00,
2013-03-06 23:24:00,36.5,21.8,30.14,ENE,64,9.2,9.2,55,0.00,OVC,,0.00,0.0,WeatherDisplay:10.37,2013-03-07 04:24:00,
2013-03-06 23:29:00,36.5,21.8,30.13,East,87,7.0,7.0,55,0.00,OVC,,0.00,0.0,WeatherDisplay:10.37,2013-03-07 04:29:00,
2013-03-06 23:34:00,36.6,21.5,30.13,ENE,69,9.0,9.0,54,0.00,OVC,,0.00,0.0,WeatherDisplay:10.37,2013-03-07 04:34:00,
2013-03-06 23:39:00,36.6,21.5,30.13,ENE,66,4.0,4.0,54,0.00,OVC,,0.00,0.0,WeatherDisplay:10.37,2013-03-07 04:39:00,
2013-03-06 23:44:00,36.5,21.4,30.13,East,86,4.0,4.0,54,0.00,OVC,,0.00,0.0,WeatherDisplay:10.37,2013-03-07 04:44:00,
2013-03-06 23:49:00,36.3,21.2,30.13,ENE,69,4.0,4.0,54,0.00,OVC,,0.00,0.0,WeatherDisplay:10.37,2013-03-07 04:49:00,
2013-03-06 23:54:00,36.3,21.7,30.13,ENE,57,5.0,5.0,55,0.00,OVC,,0.00,0.0,WeatherDisplay:10.37,2013-03-07 04:54:00,
2013-03-06 23:59:00,36.2,21.6,30.13,ENE,57,0.0,0.0,55,0.00,OVC,,0.00,0.0,WeatherDisplay:10.37,2013-03-07 04:59:00,